sensor_id;sensor_type;location;lat;lon;timestamp;temperature;humidity
77693;SHT31;66984;47.404;18.836;2023-04-24T00:00:42;16.17;49.54
77693;SHT31;66984;47.404;18.836;2023-04-24T00:01:47;16.14;50.61
77693;SHT31;66984;47.404;18.836;2023-04-24T00:02:50;16.17;51.63
77693;SHT31;66984;47.404;18.836;2023-04-24T00:03:54;16.16;52.31
77693;SHT31;66984;47.404;18.836;2023-04-24T00:04:57;16.14;53.88
77693;SHT31;66984;47.404;18.836;2023-04-24T00:06:05;16.13;54.59
77693;SHT31;66984;47.404;18.836;2023-04-24T00:07:11;16.09;56.13
77693;SHT31;66984;47.404;18.836;2023-04-24T00:08:15;15.97;56.55
77693;SHT31;66984;47.404;18.836;2023-04-24T00:09:18;15.93;56.47
77693;SHT31;66984;47.404;18.836;2023-04-24T00:10:21;15.89;56.31
77693;SHT31;66984;47.404;18.836;2023-04-24T00:11:24;15.89;55.70
77693;SHT31;66984;47.404;18.836;2023-04-24T00:12:27;15.90;58.10
77693;SHT31;66984;47.404;18.836;2023-04-24T00:13:30;15.86;59.06
77693;SHT31;66984;47.404;18.836;2023-04-24T00:14:33;15.76;59.20
77693;SHT31;66984;47.404;18.836;2023-04-24T00:15:37;15.62;58.21
77693;SHT31;66984;47.404;18.836;2023-04-24T00:16:40;15.48;57.52
77693;SHT31;66984;47.404;18.836;2023-04-24T00:17:43;15.43;58.12
77693;SHT31;66984;47.404;18.836;2023-04-24T00:18:46;15.49;57.98
77693;SHT31;66984;47.404;18.836;2023-04-24T00:19:50;15.46;57.67
77693;SHT31;66984;47.404;18.836;2023-04-24T00:20:53;15.48;56.69
77693;SHT31;66984;47.404;18.836;2023-04-24T00:21:56;15.45;56.76
77693;SHT31;66984;47.404;18.836;2023-04-24T00:22:59;15.42;55.92
77693;SHT31;66984;47.404;18.836;2023-04-24T00:24:02;15.41;55.97
77693;SHT31;66984;47.404;18.836;2023-04-24T00:25:05;15.38;55.60
77693;SHT31;66984;47.404;18.836;2023-04-24T00:26:08;15.35;56.14
77693;SHT31;66984;47.404;18.836;2023-04-24T00:27:11;15.34;55.54
77693;SHT31;66984;47.404;18.836;2023-04-24T00:28:14;15.31;55.94
77693;SHT31;66984;47.404;18.836;2023-04-24T00:29:17;15.30;55.57
77693;SHT31;66984;47.404;18.836;2023-04-24T00:30:20;15.31;55.13
77693;SHT31;66984;47.404;18.836;2023-04-24T00:31:22;15.30;55.02
77693;SHT31;66984;47.404;18.836;2023-04-24T00:32:25;15.28;55.76
77693;SHT31;66984;47.404;18.836;2023-04-24T00:33:28;15.30;55.61
77693;SHT31;66984;47.404;18.836;2023-04-24T00:34:31;15.30;55.56
77693;SHT31;66984;47.404;18.836;2023-04-24T00:35:35;15.34;55.90
77693;SHT31;66984;47.404;18.836;2023-04-24T00:36:38;15.32;55.88
77693;SHT31;66984;47.404;18.836;2023-04-24T00:37:40;15.31;55.31
77693;SHT31;66984;47.404;18.836;2023-04-24T00:38:43;15.32;55.19
77693;SHT31;66984;47.404;18.836;2023-04-24T00:39:47;15.35;55.20
77693;SHT31;66984;47.404;18.836;2023-04-24T00:40:50;15.38;55.48
77693;SHT31;66984;47.404;18.836;2023-04-24T00:41:53;15.36;56.58
77693;SHT31;66984;47.404;18.836;2023-04-24T00:42:56;15.42;56.25
77693;SHT31;66984;47.404;18.836;2023-04-24T00:43:59;15.42;55.80
77693;SHT31;66984;47.404;18.836;2023-04-24T00:45:02;15.39;55.60
77693;SHT31;66984;47.404;18.836;2023-04-24T00:46:05;15.34;55.60
77693;SHT31;66984;47.404;18.836;2023-04-24T00:47:09;15.32;55.21
77693;SHT31;66984;47.404;18.836;2023-04-24T00:48:13;15.31;55.42
77693;SHT31;66984;47.404;18.836;2023-04-24T00:49:23;15.28;55.61
77693;SHT31;66984;47.404;18.836;2023-04-24T00:50:35;15.27;55.72
77693;SHT31;66984;47.404;18.836;2023-04-24T00:51:39;15.20;55.81
77693;SHT31;66984;47.404;18.836;2023-04-24T00:52:43;15.15;55.96
77693;SHT31;66984;47.404;18.836;2023-04-24T00:53:46;15.20;56.01
77693;SHT31;66984;47.404;18.836;2023-04-24T00:54:49;15.22;55.86
77693;SHT31;66984;47.404;18.836;2023-04-24T00:55:52;15.27;55.72
77693;SHT31;66984;47.404;18.836;2023-04-24T00:56:55;15.31;55.60
77693;SHT31;66984;47.404;18.836;2023-04-24T00:57:59;15.35;55.59
77693;SHT31;66984;47.404;18.836;2023-04-24T00:59:03;15.31;57.37
77693;SHT31;66984;47.404;18.836;2023-04-24T01:00:07;15.32;56.21
77693;SHT31;66984;47.404;18.836;2023-04-24T01:01:13;15.32;56.01
77693;SHT31;66984;47.404;18.836;2023-04-24T01:02:16;15.35;55.92
77693;SHT31;66984;47.404;18.836;2023-04-24T01:03:21;15.30;55.70
77693;SHT31;66984;47.404;18.836;2023-04-24T01:04:25;15.28;55.69
77693;SHT31;66984;47.404;18.836;2023-04-24T01:05:29;15.17;56.70
77693;SHT31;66984;47.404;18.836;2023-04-24T01:06:32;15.12;57.06
77693;SHT31;66984;47.404;18.836;2023-04-24T01:07:37;15.10;56.93
77693;SHT31;66984;47.404;18.836;2023-04-24T01:08:41;15.05;56.57
77693;SHT31;66984;47.404;18.836;2023-04-24T01:09:45;15.00;56.88
77693;SHT31;66984;47.404;18.836;2023-04-24T01:10:52;15.00;57.29
77693;SHT31;66984;47.404;18.836;2023-04-24T01:11:55;14.93;57.86
77693;SHT31;66984;47.404;18.836;2023-04-24T01:12:59;14.85;57.92
77693;SHT31;66984;47.404;18.836;2023-04-24T01:14:02;14.90;57.99
77693;SHT31;66984;47.404;18.836;2023-04-24T01:15:06;14.87;58.47
77693;SHT31;66984;47.404;18.836;2023-04-24T01:16:10;14.83;58.79
77693;SHT31;66984;47.404;18.836;2023-04-24T01:17:13;14.88;59.00
77693;SHT31;66984;47.404;18.836;2023-04-24T01:18:16;14.87;59.13
77693;SHT31;66984;47.404;18.836;2023-04-24T01:19:19;14.84;58.92
77693;SHT31;66984;47.404;18.836;2023-04-24T01:20:22;14.88;59.20
77693;SHT31;66984;47.404;18.836;2023-04-24T01:21:30;14.88;59.62
77693;SHT31;66984;47.404;18.836;2023-04-24T01:22:34;14.93;59.87
77693;SHT31;66984;47.404;18.836;2023-04-24T01:23:37;14.87;60.10
77693;SHT31;66984;47.404;18.836;2023-04-24T01:24:41;14.87;60.49
77693;SHT31;66984;47.404;18.836;2023-04-24T01:25:44;14.85;61.08
77693;SHT31;66984;47.404;18.836;2023-04-24T01:26:47;14.90;60.97
77693;SHT31;66984;47.404;18.836;2023-04-24T01:27:50;14.88;61.56
77693;SHT31;66984;47.404;18.836;2023-04-24T01:28:54;14.85;61.23
77693;SHT31;66984;47.404;18.836;2023-04-24T01:29:57;14.87;61.38
77693;SHT31;66984;47.404;18.836;2023-04-24T01:31:00;14.91;61.71
77693;SHT31;66984;47.404;18.836;2023-04-24T01:32:04;14.91;61.44
77693;SHT31;66984;47.404;18.836;2023-04-24T01:33:07;14.85;62.07
77693;SHT31;66984;47.404;18.836;2023-04-24T01:34:10;14.80;62.16
77693;SHT31;66984;47.404;18.836;2023-04-24T01:35:13;14.83;62.69
77693;SHT31;66984;47.404;18.836;2023-04-24T01:36:18;14.83;62.52
77693;SHT31;66984;47.404;18.836;2023-04-24T01:37:21;14.81;62.54
77693;SHT31;66984;47.404;18.836;2023-04-24T01:38:24;14.83;62.52
77693;SHT31;66984;47.404;18.836;2023-04-24T01:39:27;14.80;62.53
77693;SHT31;66984;47.404;18.836;2023-04-24T01:40:32;14.81;62.34
77693;SHT31;66984;47.404;18.836;2023-04-24T01:41:35;14.81;62.43
77693;SHT31;66984;47.404;18.836;2023-04-24T01:42:38;14.84;62.43
77693;SHT31;66984;47.404;18.836;2023-04-24T01:43:41;14.87;62.47
77693;SHT31;66984;47.404;18.836;2023-04-24T01:44:44;14.84;62.72
77693;SHT31;66984;47.404;18.836;2023-04-24T01:45:47;14.85;62.65
77693;SHT31;66984;47.404;18.836;2023-04-24T01:46:50;14.87;62.67
77693;SHT31;66984;47.404;18.836;2023-04-24T01:47:53;14.90;62.73
77693;SHT31;66984;47.404;18.836;2023-04-24T01:48:56;14.91;62.80
77693;SHT31;66984;47.404;18.836;2023-04-24T01:49:59;14.87;63.03
77693;SHT31;66984;47.404;18.836;2023-04-24T01:51:02;14.87;63.23
77693;SHT31;66984;47.404;18.836;2023-04-24T01:52:05;14.83;63.53
77693;SHT31;66984;47.404;18.836;2023-04-24T01:53:08;14.83;63.74
77693;SHT31;66984;47.404;18.836;2023-04-24T01:54:12;14.88;63.37
77693;SHT31;66984;47.404;18.836;2023-04-24T01:55:16;14.87;63.54
77693;SHT31;66984;47.404;18.836;2023-04-24T01:56:20;14.90;63.36
77693;SHT31;66984;47.404;18.836;2023-04-24T01:57:24;14.93;63.46
77693;SHT31;66984;47.404;18.836;2023-04-24T01:58:27;14.94;63.68
77693;SHT31;66984;47.404;18.836;2023-04-24T01:59:31;14.97;63.82
77693;SHT31;66984;47.404;18.836;2023-04-24T02:00:35;14.97;63.64
77693;SHT31;66984;47.404;18.836;2023-04-24T02:01:39;14.97;63.67
77693;SHT31;66984;47.404;18.836;2023-04-24T02:02:42;14.93;63.77
77693;SHT31;66984;47.404;18.836;2023-04-24T02:03:48;14.94;63.78
77693;SHT31;66984;47.404;18.836;2023-04-24T02:04:51;14.95;63.65
77693;SHT31;66984;47.404;18.836;2023-04-24T02:05:54;14.94;64.08
77693;SHT31;66984;47.404;18.836;2023-04-24T02:06:57;14.94;63.73
77693;SHT31;66984;47.404;18.836;2023-04-24T02:08:00;14.93;63.74
77693;SHT31;66984;47.404;18.836;2023-04-24T02:09:03;14.90;63.72
77693;SHT31;66984;47.404;18.836;2023-04-24T02:10:06;14.88;63.58
77693;SHT31;66984;47.404;18.836;2023-04-24T02:11:09;14.91;63.76
77693;SHT31;66984;47.404;18.836;2023-04-24T02:12:12;14.88;63.56
77693;SHT31;66984;47.404;18.836;2023-04-24T02:13:15;14.80;63.82
77693;SHT31;66984;47.404;18.836;2023-04-24T02:14:18;14.80;63.81
77693;SHT31;66984;47.404;18.836;2023-04-24T02:15:21;14.83;64.05
77693;SHT31;66984;47.404;18.836;2023-04-24T02:16:23;14.84;64.63
77693;SHT31;66984;47.404;18.836;2023-04-24T02:17:27;14.84;64.77
77693;SHT31;66984;47.404;18.836;2023-04-24T02:18:30;14.85;64.72
77693;SHT31;66984;47.404;18.836;2023-04-24T02:19:33;14.88;64.60
77693;SHT31;66984;47.404;18.836;2023-04-24T02:20:36;14.88;64.43
77693;SHT31;66984;47.404;18.836;2023-04-24T02:21:39;14.88;64.33
77693;SHT31;66984;47.404;18.836;2023-04-24T02:22:42;14.85;64.05
77693;SHT31;66984;47.404;18.836;2023-04-24T02:23:45;14.85;64.31
77693;SHT31;66984;47.404;18.836;2023-04-24T02:24:48;14.77;64.23
77693;SHT31;66984;47.404;18.836;2023-04-24T02:25:51;14.79;64.32
77693;SHT31;66984;47.404;18.836;2023-04-24T02:26:55;14.74;64.65
77693;SHT31;66984;47.404;18.836;2023-04-24T02:27:59;14.76;64.54
77693;SHT31;66984;47.404;18.836;2023-04-24T02:29:01;14.80;64.58
77693;SHT31;66984;47.404;18.836;2023-04-24T02:30:05;14.80;64.56
77693;SHT31;66984;47.404;18.836;2023-04-24T02:31:08;14.74;64.84
77693;SHT31;66984;47.404;18.836;2023-04-24T02:32:11;14.77;64.67
77693;SHT31;66984;47.404;18.836;2023-04-24T02:33:14;14.73;64.88
77693;SHT31;66984;47.404;18.836;2023-04-24T02:34:17;14.74;64.62
77693;SHT31;66984;47.404;18.836;2023-04-24T02:35:20;14.76;64.64
77693;SHT31;66984;47.404;18.836;2023-04-24T02:36:23;14.74;64.62
77693;SHT31;66984;47.404;18.836;2023-04-24T02:37:26;14.76;64.53
77693;SHT31;66984;47.404;18.836;2023-04-24T02:38:29;14.77;64.84
77693;SHT31;66984;47.404;18.836;2023-04-24T02:39:32;14.74;64.68
77693;SHT31;66984;47.404;18.836;2023-04-24T02:40:35;14.73;64.76
77693;SHT31;66984;47.404;18.836;2023-04-24T02:41:38;14.72;64.64
77693;SHT31;66984;47.404;18.836;2023-04-24T02:42:41;14.64;64.96
77693;SHT31;66984;47.404;18.836;2023-04-24T02:43:44;14.69;64.72
77693;SHT31;66984;47.404;18.836;2023-04-24T02:44:47;14.69;64.85
77693;SHT31;66984;47.404;18.836;2023-04-24T02:45:49;14.73;64.85
77693;SHT31;66984;47.404;18.836;2023-04-24T02:46:53;14.70;64.88
77693;SHT31;66984;47.404;18.836;2023-04-24T02:47:55;14.74;64.81
77693;SHT31;66984;47.404;18.836;2023-04-24T02:48:58;14.77;64.66
77693;SHT31;66984;47.404;18.836;2023-04-24T02:50:02;14.77;64.84
77693;SHT31;66984;47.404;18.836;2023-04-24T02:51:05;14.73;64.65
77693;SHT31;66984;47.404;18.836;2023-04-24T02:52:09;14.73;64.55
77693;SHT31;66984;47.404;18.836;2023-04-24T02:53:12;14.74;64.69
77693;SHT31;66984;47.404;18.836;2023-04-24T02:54:15;14.72;64.92
77693;SHT31;66984;47.404;18.836;2023-04-24T02:55:18;14.72;65.05
77693;SHT31;66984;47.404;18.836;2023-04-24T02:56:20;14.72;64.91
77693;SHT31;66984;47.404;18.836;2023-04-24T02:57:24;14.73;64.26
77693;SHT31;66984;47.404;18.836;2023-04-24T02:58:27;14.73;64.25
77693;SHT31;66984;47.404;18.836;2023-04-24T02:59:30;14.74;64.18
77693;SHT31;66984;47.404;18.836;2023-04-24T03:00:33;14.79;64.31
77693;SHT31;66984;47.404;18.836;2023-04-24T03:01:37;14.79;63.91
77693;SHT31;66984;47.404;18.836;2023-04-24T03:02:43;14.81;63.98
77693;SHT31;66984;47.404;18.836;2023-04-24T03:03:46;14.81;63.78
77693;SHT31;66984;47.404;18.836;2023-04-24T03:04:49;14.83;63.76
77693;SHT31;66984;47.404;18.836;2023-04-24T03:05:52;14.85;63.63
77693;SHT31;66984;47.404;18.836;2023-04-24T03:06:55;14.88;63.47
77693;SHT31;66984;47.404;18.836;2023-04-24T03:07:58;14.91;63.48
77693;SHT31;66984;47.404;18.836;2023-04-24T03:09:01;14.91;63.25
77693;SHT31;66984;47.404;18.836;2023-04-24T03:10:05;14.95;63.16
77693;SHT31;66984;47.404;18.836;2023-04-24T03:11:08;14.94;62.98
77693;SHT31;66984;47.404;18.836;2023-04-24T03:12:11;14.91;62.87
77693;SHT31;66984;47.404;18.836;2023-04-24T03:13:15;14.90;62.87
77693;SHT31;66984;47.404;18.836;2023-04-24T03:14:18;14.90;62.62
77693;SHT31;66984;47.404;18.836;2023-04-24T03:15:21;14.90;62.57
77693;SHT31;66984;47.404;18.836;2023-04-24T03:16:23;14.84;62.65
77693;SHT31;66984;47.404;18.836;2023-04-24T03:17:27;14.85;62.57
77693;SHT31;66984;47.404;18.836;2023-04-24T03:18:29;14.83;62.32
77693;SHT31;66984;47.404;18.836;2023-04-24T03:19:33;14.81;61.90
77693;SHT31;66984;47.404;18.836;2023-04-24T03:20:36;14.81;61.78
77693;SHT31;66984;47.404;18.836;2023-04-24T03:21:40;14.85;61.72
77693;SHT31;66984;47.404;18.836;2023-04-24T03:22:43;14.85;61.28
77693;SHT31;66984;47.404;18.836;2023-04-24T03:23:46;14.84;61.11
77693;SHT31;66984;47.404;18.836;2023-04-24T03:24:49;14.85;61.12
77693;SHT31;66984;47.404;18.836;2023-04-24T03:25:52;14.88;60.93
77693;SHT31;66984;47.404;18.836;2023-04-24T03:26:55;14.85;60.76
77693;SHT31;66984;47.404;18.836;2023-04-24T03:27:59;14.87;60.91
77693;SHT31;66984;47.404;18.836;2023-04-24T03:29:02;14.88;60.93
77693;SHT31;66984;47.404;18.836;2023-04-24T03:30:06;14.90;60.72
77693;SHT31;66984;47.404;18.836;2023-04-24T03:31:09;14.87;60.65
77693;SHT31;66984;47.404;18.836;2023-04-24T03:32:12;14.83;60.74
77693;SHT31;66984;47.404;18.836;2023-04-24T03:33:15;14.84;60.22
77693;SHT31;66984;47.404;18.836;2023-04-24T03:34:18;14.84;60.72
77693;SHT31;66984;47.404;18.836;2023-04-24T03:35:21;14.85;60.67
77693;SHT31;66984;47.404;18.836;2023-04-24T03:36:24;14.84;60.68
77693;SHT31;66984;47.404;18.836;2023-04-24T03:37:29;14.90;60.74
77693;SHT31;66984;47.404;18.836;2023-04-24T03:38:32;14.93;60.74
77693;SHT31;66984;47.404;18.836;2023-04-24T03:39:35;14.95;60.82
77693;SHT31;66984;47.404;18.836;2023-04-24T03:40:37;14.95;60.88
77693;SHT31;66984;47.404;18.836;2023-04-24T03:41:40;14.97;60.96
77693;SHT31;66984;47.404;18.836;2023-04-24T03:42:43;15.01;61.04
77693;SHT31;66984;47.404;18.836;2023-04-24T03:43:46;15.00;61.11
77693;SHT31;66984;47.404;18.836;2023-04-24T03:44:49;15.00;61.10
77693;SHT31;66984;47.404;18.836;2023-04-24T03:45:52;15.00;61.07
77693;SHT31;66984;47.404;18.836;2023-04-24T03:46:55;14.98;60.92
77693;SHT31;66984;47.404;18.836;2023-04-24T03:47:58;14.94;60.97
77693;SHT31;66984;47.404;18.836;2023-04-24T03:49:01;14.93;61.13
77693;SHT31;66984;47.404;18.836;2023-04-24T03:50:04;14.91;61.19
77693;SHT31;66984;47.404;18.836;2023-04-24T03:51:07;14.91;61.22
77693;SHT31;66984;47.404;18.836;2023-04-24T03:52:10;14.91;61.29
77693;SHT31;66984;47.404;18.836;2023-04-24T03:53:13;14.91;61.21
77693;SHT31;66984;47.404;18.836;2023-04-24T03:54:16;14.90;61.41
77693;SHT31;66984;47.404;18.836;2023-04-24T03:55:18;14.88;61.17
77693;SHT31;66984;47.404;18.836;2023-04-24T03:56:21;14.83;61.39
77693;SHT31;66984;47.404;18.836;2023-04-24T03:57:24;14.84;61.75
77693;SHT31;66984;47.404;18.836;2023-04-24T03:58:27;14.80;61.93
77693;SHT31;66984;47.404;18.836;2023-04-24T03:59:30;14.80;61.98
77693;SHT31;66984;47.404;18.836;2023-04-24T04:00:33;14.80;62.17
77693;SHT31;66984;47.404;18.836;2023-04-24T04:01:37;14.80;62.78
77693;SHT31;66984;47.404;18.836;2023-04-24T04:02:42;14.74;62.97
77693;SHT31;66984;47.404;18.836;2023-04-24T04:03:45;14.76;63.22
77693;SHT31;66984;47.404;18.836;2023-04-24T04:04:49;14.76;63.33
77693;SHT31;66984;47.404;18.836;2023-04-24T04:05:52;14.73;63.26
77693;SHT31;66984;47.404;18.836;2023-04-24T04:06:55;14.70;63.53
77693;SHT31;66984;47.404;18.836;2023-04-24T04:07:58;14.70;63.57
77693;SHT31;66984;47.404;18.836;2023-04-24T04:09:01;14.73;63.20
77693;SHT31;66984;47.404;18.836;2023-04-24T04:10:05;14.72;63.29
77693;SHT31;66984;47.404;18.836;2023-04-24T04:11:09;14.66;64.03
77693;SHT31;66984;47.404;18.836;2023-04-24T04:12:12;14.66;64.19
77693;SHT31;66984;47.404;18.836;2023-04-24T04:13:15;14.63;64.15
77693;SHT31;66984;47.404;18.836;2023-04-24T04:14:18;14.62;64.17
77693;SHT31;66984;47.404;18.836;2023-04-24T04:15:21;14.62;64.09
77693;SHT31;66984;47.404;18.836;2023-04-24T04:16:23;14.63;64.07
77693;SHT31;66984;47.404;18.836;2023-04-24T04:17:27;14.67;64.01
77693;SHT31;66984;47.404;18.836;2023-04-24T04:18:30;14.72;63.71
77693;SHT31;66984;47.404;18.836;2023-04-24T04:19:33;14.72;63.91
77693;SHT31;66984;47.404;18.836;2023-04-24T04:20:36;14.73;64.15
77693;SHT31;66984;47.404;18.836;2023-04-24T04:21:39;14.77;63.85
77693;SHT31;66984;47.404;18.836;2023-04-24T04:22:42;14.72;63.79
77693;SHT31;66984;47.404;18.836;2023-04-24T04:23:45;14.69;63.75
77693;SHT31;66984;47.404;18.836;2023-04-24T04:24:48;14.67;63.76
77693;SHT31;66984;47.404;18.836;2023-04-24T04:25:51;14.69;63.81
77693;SHT31;66984;47.404;18.836;2023-04-24T04:26:54;14.72;63.78
77693;SHT31;66984;47.404;18.836;2023-04-24T04:27:59;14.64;63.89
77693;SHT31;66984;47.404;18.836;2023-04-24T04:29:02;14.60;63.90
77693;SHT31;66984;47.404;18.836;2023-04-24T04:30:06;14.57;63.92
77693;SHT31;66984;47.404;18.836;2023-04-24T04:31:09;14.55;64.15
77693;SHT31;66984;47.404;18.836;2023-04-24T04:32:12;14.50;64.33
77693;SHT31;66984;47.404;18.836;2023-04-24T04:33:15;14.49;64.44
77693;SHT31;66984;47.404;18.836;2023-04-24T04:34:18;14.50;64.45
77693;SHT31;66984;47.404;18.836;2023-04-24T04:35:22;14.46;64.79
77693;SHT31;66984;47.404;18.836;2023-04-24T04:36:25;14.42;64.59
77693;SHT31;66984;47.404;18.836;2023-04-24T04:37:29;14.33;65.39
77693;SHT31;66984;47.404;18.836;2023-04-24T04:38:32;14.33;65.26
77693;SHT31;66984;47.404;18.836;2023-04-24T04:39:36;14.32;65.61
77693;SHT31;66984;47.404;18.836;2023-04-24T04:40:39;14.28;65.33
77693;SHT31;66984;47.404;18.836;2023-04-24T04:41:42;14.24;65.36
77693;SHT31;66984;47.404;18.836;2023-04-24T04:42:45;14.22;65.63
77693;SHT31;66984;47.404;18.836;2023-04-24T04:43:48;14.21;65.55
77693;SHT31;66984;47.404;18.836;2023-04-24T04:44:51;14.25;65.60
77693;SHT31;66984;47.404;18.836;2023-04-24T04:45:54;14.24;65.42
77693;SHT31;66984;47.404;18.836;2023-04-24T04:46:58;14.25;65.50
77693;SHT31;66984;47.404;18.836;2023-04-24T04:48:02;14.26;65.10
77693;SHT31;66984;47.404;18.836;2023-04-24T04:49:06;14.22;65.51
77693;SHT31;66984;47.404;18.836;2023-04-24T04:50:09;14.21;65.66
77693;SHT31;66984;47.404;18.836;2023-04-24T04:51:12;14.18;65.52
77693;SHT31;66984;47.404;18.836;2023-04-24T04:52:15;14.16;65.99
77693;SHT31;66984;47.404;18.836;2023-04-24T04:53:19;14.14;65.94
77693;SHT31;66984;47.404;18.836;2023-04-24T04:54:22;14.14;66.07
77693;SHT31;66984;47.404;18.836;2023-04-24T04:55:25;14.14;66.15
77693;SHT31;66984;47.404;18.836;2023-04-24T04:56:28;14.18;66.17
77693;SHT31;66984;47.404;18.836;2023-04-24T04:57:31;14.15;66.51
77693;SHT31;66984;47.404;18.836;2023-04-24T04:58:34;14.16;65.97
77693;SHT31;66984;47.404;18.836;2023-04-24T04:59:37;14.18;66.05
77693;SHT31;66984;47.404;18.836;2023-04-24T05:00:40;14.21;66.15
77693;SHT31;66984;47.404;18.836;2023-04-24T05:01:44;14.24;66.33
77693;SHT31;66984;47.404;18.836;2023-04-24T05:02:46;14.26;66.31
77693;SHT31;66984;47.404;18.836;2023-04-24T05:03:50;14.29;66.08
77693;SHT31;66984;47.404;18.836;2023-04-24T05:04:53;14.35;65.84
77693;SHT31;66984;47.404;18.836;2023-04-24T05:05:57;14.35;65.99
77693;SHT31;66984;47.404;18.836;2023-04-24T05:07:00;14.32;66.20
77693;SHT31;66984;47.404;18.836;2023-04-24T05:08:03;14.29;66.26
77693;SHT31;66984;47.404;18.836;2023-04-24T05:09:11;14.29;66.70
77693;SHT31;66984;47.404;18.836;2023-04-24T05:10:14;14.26;66.73
77693;SHT31;66984;47.404;18.836;2023-04-24T05:11:17;14.24;66.82
77693;SHT31;66984;47.404;18.836;2023-04-24T05:12:20;14.22;67.10
77693;SHT31;66984;47.404;18.836;2023-04-24T05:13:23;14.19;67.00
77693;SHT31;66984;47.404;18.836;2023-04-24T05:14:40;14.22;67.02
77693;SHT31;66984;47.404;18.836;2023-04-24T05:15:43;14.21;67.24
77693;SHT31;66984;47.404;18.836;2023-04-24T05:16:46;14.15;67.61
77693;SHT31;66984;47.404;18.836;2023-04-24T05:17:49;14.12;67.78
77693;SHT31;66984;47.404;18.836;2023-04-24T05:18:52;14.08;68.27
77693;SHT31;66984;47.404;18.836;2023-04-24T05:19:55;14.09;67.79
77693;SHT31;66984;47.404;18.836;2023-04-24T05:20:58;14.12;68.10
77693;SHT31;66984;47.404;18.836;2023-04-24T05:22:01;14.12;67.71
77693;SHT31;66984;47.404;18.836;2023-04-24T05:23:05;14.12;68.02
77693;SHT31;66984;47.404;18.836;2023-04-24T05:24:08;14.11;68.23
77693;SHT31;66984;47.404;18.836;2023-04-24T05:25:11;14.14;68.19
77693;SHT31;66984;47.404;18.836;2023-04-24T05:26:15;14.15;67.98
77693;SHT31;66984;47.404;18.836;2023-04-24T05:27:18;14.18;67.81
77693;SHT31;66984;47.404;18.836;2023-04-24T05:28:21;14.19;67.57
77693;SHT31;66984;47.404;18.836;2023-04-24T05:29:24;14.22;67.64
77693;SHT31;66984;47.404;18.836;2023-04-24T05:30:28;14.19;67.43
77693;SHT31;66984;47.404;18.836;2023-04-24T05:31:31;14.21;67.45
77693;SHT31;66984;47.404;18.836;2023-04-24T05:32:34;14.24;67.43
77693;SHT31;66984;47.404;18.836;2023-04-24T05:33:38;14.26;67.52
77693;SHT31;66984;47.404;18.836;2023-04-24T05:34:40;14.21;67.36
77693;SHT31;66984;47.404;18.836;2023-04-24T05:35:43;14.15;67.72
77693;SHT31;66984;47.404;18.836;2023-04-24T05:36:49;14.15;67.75
77693;SHT31;66984;47.404;18.836;2023-04-24T05:37:53;14.22;67.63
77693;SHT31;66984;47.404;18.836;2023-04-24T05:38:56;14.21;67.52
77693;SHT31;66984;47.404;18.836;2023-04-24T05:39:59;14.18;67.59
77693;SHT31;66984;47.404;18.836;2023-04-24T05:41:02;14.16;67.85
77693;SHT31;66984;47.404;18.836;2023-04-24T05:42:05;14.15;67.69
77693;SHT31;66984;47.404;18.836;2023-04-24T05:43:07;14.16;68.10
77693;SHT31;66984;47.404;18.836;2023-04-24T05:44:10;14.15;67.94
77693;SHT31;66984;47.404;18.836;2023-04-24T05:45:13;14.21;67.80
77693;SHT31;66984;47.404;18.836;2023-04-24T05:46:19;14.21;68.30
77693;SHT31;66984;47.404;18.836;2023-04-24T05:47:22;14.19;68.13
77693;SHT31;66984;47.404;18.836;2023-04-24T05:48:25;14.25;68.06
77693;SHT31;66984;47.404;18.836;2023-04-24T05:49:28;14.25;67.97
77693;SHT31;66984;47.404;18.836;2023-04-24T05:50:31;14.30;67.98
77693;SHT31;66984;47.404;18.836;2023-04-24T05:51:37;14.26;67.94
77693;SHT31;66984;47.404;18.836;2023-04-24T05:52:41;14.28;67.80
77693;SHT31;66984;47.404;18.836;2023-04-24T05:53:44;14.33;67.84
77693;SHT31;66984;47.404;18.836;2023-04-24T05:54:47;14.40;67.73
77693;SHT31;66984;47.404;18.836;2023-04-24T05:55:50;14.45;67.66
77693;SHT31;66984;47.404;18.836;2023-04-24T05:56:53;14.47;67.62
77693;SHT31;66984;47.404;18.836;2023-04-24T05:57:58;14.50;68.02
77693;SHT31;66984;47.404;18.836;2023-04-24T05:59:01;14.49;67.94
77693;SHT31;66984;47.404;18.836;2023-04-24T06:00:04;14.53;67.64
77693;SHT31;66984;47.404;18.836;2023-04-24T06:01:11;14.52;67.75
77693;SHT31;66984;47.404;18.836;2023-04-24T06:02:14;14.56;67.85
77693;SHT31;66984;47.404;18.836;2023-04-24T06:03:17;14.59;68.24
77693;SHT31;66984;47.404;18.836;2023-04-24T06:04:20;14.57;68.52
77693;SHT31;66984;47.404;18.836;2023-04-24T06:05:24;14.57;68.54
77693;SHT31;66984;47.404;18.836;2023-04-24T06:06:27;14.60;68.53
77693;SHT31;66984;47.404;18.836;2023-04-24T06:07:31;14.59;69.06
77693;SHT31;66984;47.404;18.836;2023-04-24T06:08:34;14.55;69.43
77693;SHT31;66984;47.404;18.836;2023-04-24T06:09:37;14.53;69.37
77693;SHT31;66984;47.404;18.836;2023-04-24T06:10:41;14.43;69.67
77693;SHT31;66984;47.404;18.836;2023-04-24T06:11:44;14.40;69.77
77693;SHT31;66984;47.404;18.836;2023-04-24T06:12:47;14.43;70.18
77693;SHT31;66984;47.404;18.836;2023-04-24T06:13:50;14.45;70.23
77693;SHT31;66984;47.404;18.836;2023-04-24T06:14:53;14.47;70.04
77693;SHT31;66984;47.404;18.836;2023-04-24T06:15:58;14.47;69.97
77693;SHT31;66984;47.404;18.836;2023-04-24T06:17:01;14.50;69.91
77693;SHT31;66984;47.404;18.836;2023-04-24T06:18:04;14.49;69.98
77693;SHT31;66984;47.404;18.836;2023-04-24T06:19:07;14.52;70.22
77693;SHT31;66984;47.404;18.836;2023-04-24T06:20:10;14.53;70.57
77693;SHT31;66984;47.404;18.836;2023-04-24T06:21:15;14.56;70.28
77693;SHT31;66984;47.404;18.836;2023-04-24T06:22:18;14.56;69.86
77693;SHT31;66984;47.404;18.836;2023-04-24T06:23:21;14.62;69.56
77693;SHT31;66984;47.404;18.836;2023-04-24T06:24:28;14.63;69.73
77693;SHT31;66984;47.404;18.836;2023-04-24T06:25:31;14.59;69.39
77693;SHT31;66984;47.404;18.836;2023-04-24T06:26:34;14.63;68.97
77693;SHT31;66984;47.404;18.836;2023-04-24T06:27:37;14.62;69.09
77693;SHT31;66984;47.404;18.836;2023-04-24T06:28:40;14.60;69.03
77693;SHT31;66984;47.404;18.836;2023-04-24T06:29:42;14.60;68.83
77693;SHT31;66984;47.404;18.836;2023-04-24T06:30:46;14.63;68.96
77693;SHT31;66984;47.404;18.836;2023-04-24T06:31:48;14.63;68.96
77693;SHT31;66984;47.404;18.836;2023-04-24T06:32:52;14.67;69.01
77693;SHT31;66984;47.404;18.836;2023-04-24T06:33:57;14.72;69.03